Swea City, Iowa
Current Conditions -  °F | °C
As of 2:35 AM on Friday 31 Oct 2014 (Local Time) from KFRM Reporting Station
Clear Clear  
Wind Chill: 17°   Ceiling: Unl
Heat Index: 28°   Visibility: 10mi
Dew Point: 16°   Wind: 15mph
Humidity: 59%   Direction: 340°NNW
Pressure: 30.43"   Gusts: NA
Location:  43.38°N, 94.31°W
Report Text: KFRM 310735Z AUTO 34013KT 10SM CLR M02/M09 A3043 RMK AO1
Loading
Personal Weather Stations






























Interactive Weather Map
Tropical Storm Tracking
New forecast layout! Learn more

10-Day Weather Forecast

Advertisements
Track Severe Weather on mobile